Time;durP1;ratioP1;P1;durP2;ratioP2;P2;SDS_P1;SDS_P2;PMS_P1;PMS_P2;Temp;Humidity;BMP_temperature;BMP_pressure;BME280_temperature;BME280_humidity;BME280_pressure;Samples;Min_cycle;Max_cycle;Signal;HPM_P1;HPM_P2
2022/08/19 00:02:19;;;;;;;;;;;;;;;18.71;100.00;95184.31;10350589;28;1942;-72
2022/08/19 00:07:25;;;;;;;;;;;;;;;18.69;100.00;95205.63;10363195;28;1960;-73
2022/08/19 00:12:28;;;;;;;;;;;;;;;18.84;100.00;95199.53;10357849;28;1943;-75
2022/08/19 00:17:31;;;;;;;;;;;;;;;18.86;100.00;95199.19;10349748;28;2012;-77
2022/08/19 00:22:35;;;;;;;;;;;;;;;18.81;100.00;95170.22;10361426;28;1865;-74
2022/08/19 00:27:39;;;;;;;;;;;;;;;18.67;100.00;95155.38;10362304;28;1876;-73
2022/08/19 00:32:43;;;;;;;;;;;;;;;18.54;100.00;95132.78;10356712;28;1925;-72
2022/08/19 00:37:46;;;;;;;;;;;;;;;18.35;100.00;95144.22;10354365;28;1999;-71
2022/08/19 00:42:53;;;;;;;;;;;;;;;18.22;100.00;95153.47;10360918;28;1835;-72
2022/08/19 00:47:56;;;;;;;;;;;;;;;18.40;100.00;95148.63;10360439;28;1925;-72
2022/08/19 00:52:59;;;;;;;;;;;;;;;18.50;100.00;95137.28;10360610;28;1976;-72
2022/08/19 00:58:03;;;;;;;;;;;;;;;18.49;100.00;95111.22;10359412;28;1915;-72
2022/08/19 01:03:06;;;;;;;;;;;;;;;18.18;100.00;95131.59;10360660;28;2241;-72
2022/08/19 01:08:10;;;;;;;;;;;;;;;18.06;100.00;95132.34;10355354;28;1880;-72
2022/08/19 01:13:13;;;;;;;;;;;;;;;18.00;100.00;95124.75;10356927;28;1897;-73
2022/08/19 01:18:16;;;;;;;;;;;;;;;18.04;100.00;95114.78;10356683;28;1981;-72
2022/08/19 01:23:20;;;;;;;;;;;;;;;17.85;100.00;95122.69;10358371;28;1929;-72
2022/08/19 01:28:23;;;;;;;;;;;;;;;17.76;100.00;95131.72;10357890;28;1801;-73
2022/08/19 01:33:42;;;;;;;;;;;;;;;17.81;100.00;95138.84;10357195;28;1941;-72
2022/08/19 01:38:45;;;;;;;;;;;;;;;17.82;100.00;95156.78;10356516;28;2194;-73
2022/08/19 01:43:49;;;;;;;;;;;;;;;17.91;100.00;95162.91;10360286;28;1899;-71
2022/08/19 01:49:13;;;;;;;;;;;;;;;18.21;100.00;95166.28;10358257;28;1846;-73
2022/08/19 01:54:17;;;;;;;;;;;;;;;18.38;100.00;95165.28;10352489;28;1868;-72
2022/08/19 01:59:30;;;;;;;;;;;;;;;18.42;100.00;95179.03;10363076;28;1974;-72
2022/08/19 02:04:33;;;;;;;;;;;;;;;18.72;100.00;95155.94;10358380;28;1925;-73
2022/08/19 02:09:36;;;;;;;;;;;;;;;18.62;100.00;95165.31;10358817;28;1922;-71
2022/08/19 02:14:40;;;;;;;;;;;;;;;18.76;100.00;95164.22;10357560;28;1911;-71
2022/08/19 02:19:43;;;;;;;;;;;;;;;18.66;100.00;95173.63;10365565;28;1976;-72
2022/08/19 02:24:47;;;;;;;;;;;;;;;18.74;100.00;95175.44;10358553;28;1909;-76
2022/08/19 02:29:51;;;;;;;;;;;;;;;18.69;100.00;95189.28;10355398;28;1835;-73
2022/08/19 02:34:54;;;;;;;;;;;;;;;18.73;100.00;95189.41;10360157;28;1916;-75
2022/08/19 02:39:57;;;;;;;;;;;;;;;18.74;100.00;95186.34;10363347;28;2033;-76
2022/08/19 02:45:01;;;;;;;;;;;;;;;18.70;100.00;95163.66;10357608;28;1932;-73
2022/08/19 02:50:04;;;;;;;;;;;;;;;18.50;100.00;95129.13;10363184;28;1923;-73
2022/08/19 02:55:07;;;;;;;;;;;;;;;18.21;100.00;95113.81;10353395;28;2024;-74
2022/08/19 03:00:11;;;;;;;;;;;;;;;18.27;100.00;95117.91;10360632;28;2003;-72
2022/08/19 03:05:15;;;;;;;;;;;;;;;18.17;100.00;95108.25;10358680;28;1866;-73
2022/08/19 03:10:18;;;;;;;;;;;;;;;18.00;100.00;95120.09;10353797;28;1924;-73
2022/08/19 03:15:21;;;;;;;;;;;;;;;18.11;100.00;95142.22;10355055;28;1979;-72
2022/08/19 03:20:25;;;;;;;;;;;;;;;18.21;100.00;95130.94;10351012;28;1910;-73
2022/08/19 03:25:28;;;;;;;;;;;;;;;18.30;100.00;95144.41;10353244;28;1951;-72
2022/08/19 03:30:32;;;;;;;;;;;;;;;18.18;100.00;95169.66;10351369;28;1949;-74
2022/08/19 03:35:36;;;;;;;;;;;;;;;18.34;100.00;95157.03;10355758;28;2153;-74
2022/08/19 03:40:39;;;;;;;;;;;;;;;18.14;100.00;95157.88;10354277;28;2304;-73
2022/08/19 03:45:43;;;;;;;;;;;;;;;18.23;100.00;95152.34;10351343;28;2149;-72
2022/08/19 03:50:46;;;;;;;;;;;;;;;18.14;100.00;95154.38;10355222;28;2193;-71
2022/08/19 03:55:49;;;;;;;;;;;;;;;18.21;100.00;95158.13;10349758;28;1970;-73
2022/08/19 04:00:52;;;;;;;;;;;;;;;18.10;100.00;95156.97;10349318;28;1907;-73
2022/08/19 04:05:56;;;;;;;;;;;;;;;18.13;100.00;95145.41;10355436;28;1872;-73
2022/08/19 04:10:59;;;;;;;;;;;;;;;18.13;100.00;95155.47;10352157;28;1902;-72
2022/08/19 04:16:03;;;;;;;;;;;;;;;18.04;100.00;95147.44;10351633;28;1959;-72
2022/08/19 04:21:06;;;;;;;;;;;;;;;17.95;100.00;95144.00;10351010;28;1818;-71
2022/08/19 04:26:10;;;;;;;;;;;;;;;18.08;100.00;95140.19;10348873;28;1876;-72
2022/08/19 04:31:15;;;;;;;;;;;;;;;18.20;100.00;95156.53;10351052;28;1954;-71
2022/08/19 04:36:20;;;;;;;;;;;;;;;18.36;100.00;95170.28;10352761;28;2024;-71
2022/08/19 04:46:44;;;;;;;;;;;;;;;18.57;100.00;95181.06;10349912;28;1918;-69
2022/08/19 04:51:54;;;;;;;;;;;;;;;18.75;100.00;95187.94;10354489;28;1872;-72
2022/08/19 04:56:57;;;;;;;;;;;;;;;18.73;100.00;95190.19;10352705;28;1934;-72
2022/08/19 05:02:00;;;;;;;;;;;;;;;18.74;100.00;95202.69;10353056;28;1861;-72
2022/08/19 05:07:04;;;;;;;;;;;;;;;18.97;100.00;95194.88;10343420;28;2152;-74
2022/08/19 05:12:07;;;;;;;;;;;;;;;18.89;100.00;95214.81;10352300;28;1925;-73
2022/08/19 05:17:11;;;;;;;;;;;;;;;19.06;100.00;95206.44;10352961;28;2037;-75
2022/08/19 05:22:34;;;;;;;;;;;;;;;19.03;100.00;95198.16;10355617;28;1968;-72
2022/08/19 05:27:37;;;;;;;;;;;;;;;19.10;100.00;95206.56;10352913;28;1952;-75
2022/08/19 05:32:40;;;;;;;;;;;;;;;19.07;100.00;95193.59;10353234;28;1838;-74
2022/08/19 05:37:44;;;;;;;;;;;;;;;19.04;100.00;95188.84;10361799;28;1947;-74
2022/08/19 05:42:49;;;;;;;;;;;;;;;19.06;100.00;95190.09;10355935;28;1843;-74
2022/08/19 05:47:58;;;;;;;;;;;;;;;18.86;100.00;95183.63;10359375;28;1873;-72
2022/08/19 05:53:01;;;;;;;;;;;;;;;18.97;100.00;95189.41;10358547;28;2040;-74
2022/08/19 05:58:07;;;;;;;;;;;;;;;19.48;100.00;95192.53;10350083;28;1902;-78
2022/08/19 06:03:10;;;;;;;;;;;;;;;19.76;100.00;95187.13;10347744;28;2065;-76
2022/08/19 06:08:18;;;;;;;;;;;;;;;19.86;100.00;95192.13;10347193;28;1827;-76
2022/08/19 06:13:22;;;;;;;;;;;;;;;19.86;100.00;95185.88;10351786;28;1956;-75
2022/08/19 06:18:26;;;;;;;;;;;;;;;20.00;100.00;95197.16;10347565;28;2007;-75
2022/08/19 06:23:29;;;;;;;;;;;;;;;20.06;100.00;95200.44;10343586;28;1862;-75
2022/08/19 06:28:33;;;;;;;;;;;;;;;19.98;100.00;95199.47;10350982;28;1959;-76
2022/08/19 06:33:37;;;;;;;;;;;;;;;19.87;100.00;95193.69;10350962;28;1897;-76
2022/08/19 06:38:40;;;;;;;;;;;;;;;19.49;100.00;95198.78;10349478;28;1906;-78
2022/08/19 06:43:48;;;;;;;;;;;;;;;19.37;100.00;95202.31;10347523;28;1951;-78
2022/08/19 06:48:56;;;;;;;;;;;;;;;19.37;100.00;95197.66;10347977;28;2283;-77
2022/08/19 06:53:59;;;;;;;;;;;;;;;19.26;100.00;95209.38;10341179;28;1893;-74
2022/08/19 06:59:02;;;;;;;;;;;;;;;19.04;100.00;95202.47;10353029;28;1922;-76
2022/08/19 07:04:06;;;;;;;;;;;;;;;18.77;100.00;95195.78;10349828;28;1823;-77
2022/08/19 07:09:14;;;;;;;;;;;;;;;18.64;100.00;95200.38;10351446;28;1911;-76
2022/08/19 07:14:21;;;;;;;;;;;;;;;18.60;100.00;95199.47;10344955;28;1900;-77
2022/08/19 07:19:25;;;;;;;;;;;;;;;18.68;100.00;95193.16;10353403;28;1941;-77
2022/08/19 07:24:29;;;;;;;;;;;;;;;18.53;100.00;95183.69;10349856;28;2185;-77
2022/08/19 07:29:36;;;;;;;;;;;;;;;18.82;100.00;95166.38;10352773;28;1781;-76
2022/08/19 07:34:39;;;;;;;;;;;;;;;18.61;100.00;95160.22;10357479;28;1876;-77
2022/08/19 07:39:45;;;;;;;;;;;;;;;19.03;100.00;95160.81;10346592;28;1969;-76
2022/08/19 07:44:48;;;;;;;;;;;;;;;19.27;100.00;95159.19;10350804;28;1828;-77
2022/08/19 07:49:52;;;;;;;;;;;;;;;19.41;100.00;95171.31;10348434;28;2335;-77
2022/08/19 07:54:57;;;;;;;;;;;;;;;19.36;100.00;95177.00;10348018;28;1902;-77
2022/08/19 08:00:01;;;;;;;;;;;;;;;19.98;100.00;95174.91;10344801;28;1910;-77
2022/08/19 08:10:37;;;;;;;;;;;;;;;19.53;100.00;95183.31;10298084;28;1928;-77
2022/08/19 08:15:40;;;;;;;;;;;;;;;19.25;100.00;95181.31;10350055;28;1945;-77
2022/08/19 08:20:45;;;;;;;;;;;;;;;19.22;100.00;95198.38;10346590;28;1953;-75
2022/08/19 08:25:49;;;;;;;;;;;;;;;19.16;100.00;95195.09;10337721;28;1751;-77
2022/08/19 08:30:53;;;;;;;;;;;;;;;19.14;100.00;95193.81;10344511;28;2023;-77
2022/08/19 08:35:57;;;;;;;;;;;;;;;18.95;100.00;95199.06;10339374;28;1872;-76
2022/08/19 08:41:06;;;;;;;;;;;;;;;18.76;100.00;95208.56;10342832;28;1920;-79
2022/08/19 08:46:12;;;;;;;;;;;;;;;18.66;100.00;95213.66;10336457;28;1903;-79
2022/08/19 08:51:15;;;;;;;;;;;;;;;18.74;100.00;95224.47;10352461;28;1967;-76
2022/08/19 08:56:22;;;;;;;;;;;;;;;18.86;100.00;95227.19;10349834;28;1918;-77
2022/08/19 09:01:26;;;;;;;;;;;;;;;19.06;100.00;95224.69;10352198;28;1945;-77
2022/08/19 09:06:33;;;;;;;;;;;;;;;19.04;100.00;95226.97;10354650;28;1862;-76
2022/08/19 09:11:36;;;;;;;;;;;;;;;19.00;100.00;95231.50;10345520;28;1920;-76
2022/08/19 09:16:48;;;;;;;;;;;;;;;18.89;100.00;95231.97;10346494;28;1914;-75
2022/08/19 09:21:51;;;;;;;;;;;;;;;18.72;100.00;95232.19;10349974;28;1959;-75
2022/08/19 09:26:54;;;;;;;;;;;;;;;18.70;100.00;95239.88;10345857;28;1869;-79
2022/08/19 09:31:59;;;;;;;;;;;;;;;18.98;100.00;95234.59;10351478;28;1899;-77
2022/08/19 09:37:03;;;;;;;;;;;;;;;18.90;100.00;95244.47;10349636;28;2008;-78
2022/08/19 09:42:11;;;;;;;;;;;;;;;19.01;100.00;95238.53;10347932;28;2111;-78
2022/08/19 09:47:35;;;;;;;;;;;;;;;18.94;100.00;95217.31;10346327;28;2305;-77
2022/08/19 09:52:42;;;;;;;;;;;;;;;19.25;100.00;95222.19;10346719;28;1937;-75
2022/08/19 09:58:00;;;;;;;;;;;;;;;19.00;100.00;95220.63;10347891;28;1985;-77
2022/08/19 10:03:03;;;;;;;;;;;;;;;19.17;100.00;95225.84;10343261;28;1838;-76
2022/08/19 10:08:09;;;;;;;;;;;;;;;19.45;100.00;95240.34;10348293;28;2082;-76
2022/08/19 10:13:16;;;;;;;;;;;;;;;20.00;100.00;95245.47;10349492;28;1841;-75
2022/08/19 10:18:19;;;;;;;;;;;;;;;20.65;100.00;95243.38;10346829;28;1906;-75
2022/08/19 10:23:22;;;;;;;;;;;;;;;21.00;100.00;95218.91;10352199;28;1836;-74
2022/08/19 10:28:25;;;;;;;;;;;;;;;21.70;100.00;95232.66;10345430;28;1881;-75
2022/08/19 10:33:33;;;;;;;;;;;;;;;22.71;100.00;95229.97;10346856;28;1885;-77
2022/08/19 10:38:56;;;;;;;;;;;;;;;22.96;100.00;95217.50;10349692;28;1981;-76
2022/08/19 10:44:00;;;;;;;;;;;;;;;22.51;100.00;95215.50;10353078;28;1901;-76
2022/08/19 10:49:06;;;;;;;;;;;;;;;23.21;100.00;95217.91;10345162;28;2289;-76
2022/08/19 10:54:10;;;;;;;;;;;;;;;23.55;100.00;95209.81;10343981;28;2047;-74
2022/08/19 10:59:14;;;;;;;;;;;;;;;23.47;100.00;95211.63;10344739;28;1964;-73
2022/08/19 11:04:18;;;;;;;;;;;;;;;23.59;100.00;95214.16;10347358;28;1857;-74
2022/08/19 11:09:23;;;;;;;;;;;;;;;23.24;100.00;95208.97;10342255;28;1836;-73
2022/08/19 11:14:35;;;;;;;;;;;24.00;99.90;;;23.57;99.84;95191.81;10343710;28;1876;-73
2022/08/19 11:19:38;;;;;;;;;;;23.80;99.90;;;23.82;98.90;95191.38;10341768;28;1987;-70
2022/08/19 11:24:40;;;;;;;;;;;24.10;99.90;;;23.91;96.60;95189.13;10341157;28;1952;-73
2022/08/19 11:29:43;;;;;;;;;;;24.30;99.90;;;23.05;100.00;95190.66;10347366;28;1946;-74
2022/08/19 11:34:46;;;;;;;;;;;23.80;99.90;;;22.29;100.00;95193.22;10341831;28;1962;-75
2022/08/19 11:39:49;;;;;;;;;;;23.50;99.90;;;22.85;100.00;95202.81;10334173;28;1943;-74
2022/08/19 11:44:56;;;;;;;;;;;;;;;23.16;99.59;95191.63;10341888;28;1890;-75
2022/08/19 11:49:59;;;;;;;;;;;;;;;22.93;93.42;95194.38;10342017;28;2094;-76
2022/08/19 11:55:03;;;;;;;;;;;;;;;23.32;94.04;95188.72;10341735;28;1880;-76
2022/08/19 12:00:07;;;;;;;;;;;;;;;23.62;92.44;95196.22;10342210;28;2141;-75
2022/08/19 12:05:10;;;;;;;;;;;;;;;22.84;96.47;95217.66;10336554;28;1905;-76
2022/08/19 12:10:15;;;;;;;;;;;;;;;23.48;94.73;95207.75;10341231;28;1965;-75
2022/08/19 12:15:21;;;;;;;;;;;;;;;23.11;94.74;95208.38;10344569;28;2005;-75
2022/08/19 12:20:24;;;;;;;;;;;;;;;22.63;96.56;95210.66;10342660;28;1921;-75
2022/08/19 12:25:27;;;;;;;;;;;;;;;22.51;95.94;95227.25;10347312;28;1973;-75
2022/08/19 12:30:31;;;;;;;;;;;;;;;22.31;98.29;95233.91;10348426;28;1996;-75
2022/08/19 12:35:35;;;;;;;;;;;;;;;22.59;95.88;95223.50;10354010;28;2039;-74
2022/08/19 12:40:39;;;;;;;;;;;;;;;23.39;90.99;95215.44;10353030;28;2012;-74
2022/08/19 12:45:43;;;;;;;;;;;;;;;24.17;87.78;95222.00;10354549;28;1841;-73
2022/08/19 12:50:49;;;;;;;;;;;;;;;24.07;84.09;95219.94;10359402;28;1937;-75
2022/08/19 12:55:52;;;;;;;;;;;;;;;24.17;82.73;95224.75;10358499;28;2045;-76
2022/08/19 13:00:55;;;;;;;;;;;;;;;24.66;80.10;95225.72;10345301;28;1997;-73
2022/08/19 13:05:59;;;;;;;;;;;;;;;24.22;82.53;95235.41;10359952;28;1941;-72
2022/08/19 13:11:02;;;;;;;;;;;;;;;24.07;81.22;95230.94;10361022;28;1990;-70
2022/08/19 13:16:06;;;;;;;;;;;;;;;23.84;82.92;95224.72;10356171;28;1981;-74
2022/08/19 13:21:09;;;;;;;;;;;;;;;24.05;80.47;95227.78;10356273;28;1912;-75
2022/08/19 13:26:13;;;;;;;;;;;;;;;23.89;79.82;95219.72;10350083;28;1920;-75
2022/08/19 13:36:37;;;;;;;;;;;;;;;24.79;76.54;95208.56;10349054;28;2015;-78
2022/08/19 13:41:40;;;;;;;;;;;;;;;23.59;83.98;95208.69;10352824;28;1918;-77
2022/08/19 13:46:44;;;;;;;;;;;;;;;23.58;85.13;95218.06;10348792;28;1901;-76
2022/08/19 13:51:48;;;;;;;;;;;;;;;22.96;87.85;95219.47;10355335;28;1943;-76
2022/08/19 13:56:52;;;;;;;;;;;;;;;23.03;87.80;95214.09;10350121;28;1880;-73
2022/08/19 14:01:55;;;;;;;;;;;;;;;23.93;83.41;95217.03;10348763;28;1922;-73
2022/08/19 14:06:58;;;;;;;;;;;;;;;24.36;80.56;95217.53;10355069;28;1944;-75
2022/08/19 14:12:02;;;;;;;;;;;;;;;24.72;77.85;95218.72;10358253;28;1896;-76
2022/08/19 14:17:05;;;;;;;;;;;;;;;24.53;78.24;95216.97;10351327;28;1931;-76
2022/08/19 14:22:08;;;;;;;;;;;;;;;24.88;76.33;95216.53;10355408;28;1983;-76
2022/08/19 14:27:14;;;;;;;;;;;;;;;24.50;78.60;95223.22;10355955;28;1890;-76
2022/08/19 14:32:17;;;;;;;;;;;;;;;24.31;78.34;95231.59;10351566;28;2173;-75
2022/08/19 14:37:21;;;;;;;;;;;;;;;22.82;88.29;95242.69;10354398;28;2031;-71
2022/08/19 14:42:27;;;;;;;;;;;;;;;22.61;89.17;95242.31;10354664;28;1977;-71
2022/08/19 14:47:30;;;;;;;;;;;;;;;23.17;84.97;95237.06;10348340;28;1961;-72
2022/08/19 14:52:35;;;;;;;;;;;;;;;22.65;87.45;95243.97;10349626;28;1860;-70
2022/08/19 14:57:38;;;;;;;;;;;;;;;22.99;87.20;95246.94;10349866;28;1869;-71
2022/08/19 15:02:41;;;;;;;;;;;;;;;22.75;86.30;95250.00;10354986;28;2080;-70
2022/08/19 15:07:44;;;;;;;;;;;;;;;22.84;86.91;95247.81;10351242;28;1947;-71
2022/08/19 15:12:48;;;;;;;;;;;;;;;22.54;89.28;95245.72;10352100;28;1932;-71
2022/08/19 15:17:56;;;;;;;;;;;;;;;22.07;91.76;95257.66;10352454;28;1929;-71
2022/08/19 15:22:59;;;;;;;;;;;;;;;21.71;94.03;95247.13;10352165;28;1825;-70
2022/08/19 15:28:03;;;;;;;;;;;;;;;21.22;98.44;95247.53;10350289;28;2019;-71
2022/08/19 15:33:06;;;;;;;;;;;;;;;21.03;100.00;95250.97;10350237;28;1909;-71
2022/08/19 15:38:10;;;;;;;;;;;;;;;20.36;100.00;95269.91;10341970;28;2528;-71
2022/08/19 15:43:13;;;;;;;;;;;;;;;19.93;100.00;95278.81;10351760;28;1893;-70
2022/08/19 15:48:17;;;;;;;;;;;;;;;20.07;100.00;95284.66;10349515;28;1985;-70
2022/08/19 15:53:20;;;;;;;;;;;;;;;20.19;100.00;95287.34;10344323;28;1935;-71
2022/08/19 16:09:06;;;;;;;;;;;;;;;20.05;100.00;95295.13;10350792;28;1951;-71
2022/08/19 16:14:09;;;;;;;;;;;;;;;20.38;100.00;95294.13;10347718;28;1824;-69
2022/08/19 16:19:14;;;;;;;;;;;;;;;20.45;100.00;95294.34;10347975;28;2114;-70
2022/08/19 16:24:17;;;;;;;;;;;;;;;20.39;100.00;95296.50;10349739;28;1917;-71
2022/08/19 16:29:21;;;;;;;;;;;;;;;20.14;100.00;95305.91;10349134;28;2083;-71
2022/08/19 16:34:37;;;;;;;;;;;;;;;20.16;100.00;95309.06;10348593;28;1834;-71
2022/08/19 16:39:41;;;;;;;;;;;;;;;20.36;100.00;95313.56;10347017;28;1918;-71
2022/08/19 16:44:46;;;;;;;;;;;;;;;20.90;100.00;95315.03;10354636;28;1998;-75
2022/08/19 16:49:50;;;;;;;;;;;;;;;20.99;100.00;95321.94;10346460;28;1939;-73
2022/08/19 16:54:57;;;;;;;;;;;;;;;21.10;100.00;95329.59;10349407;28;1927;-70
2022/08/19 17:00:00;;;;;;;;;;;;;;;20.94;100.00;95327.66;10342966;28;1910;-71
2022/08/19 17:05:03;;;;;;;;;;;;;;;20.50;100.00;95341.31;10349130;28;1975;-71
2022/08/19 17:10:11;;;;;;;;;;;;;;;20.50;100.00;95341.31;10353618;28;2149;-70
2022/08/19 17:15:14;;;;;;;;;;;;;;;20.12;100.00;95357.31;10352327;28;1901;-71
2022/08/19 17:20:18;;;;;;;;;;;;;;;20.08;100.00;95357.19;10355531;28;1980;-69
2022/08/19 17:25:21;;;;;;;;;;;;;;;19.98;100.00;95366.66;10352840;28;1933;-72
2022/08/19 17:30:25;;;;;;;;;;;;;;;19.83;100.00;95372.78;10350022;28;1912;-71
2022/08/19 17:35:28;;;;;;;;;;;;;;;19.76;100.00;95372.56;10352287;28;1964;-71
2022/08/19 17:40:32;;;;;;;;;;;;;;;19.76;100.00;95379.97;10349563;28;2064;-70
2022/08/19 17:45:35;;;;;;;;;;;;;;;19.59;100.00;95383.69;10354365;28;1955;-71
2022/08/19 17:50:39;;;;;;;;;;;;;;;19.47;100.00;95398.13;10354387;28;2061;-71
2022/08/19 17:55:42;;;;;;;;;;;;;;;19.41;100.00;95400.25;10355617;28;1850;-70
2022/08/19 18:00:50;;;;;;;;;;;;;;;19.09;100.00;95403.84;10352873;28;1915;-71
2022/08/19 18:05:55;;;;;;;;;;;;;;;18.95;100.00;95409.56;10353413;28;1942;-70
2022/08/19 18:10:59;;;;;;;;;;;;;;;18.78;100.00;95420.63;10349017;28;1954;-72
2022/08/19 18:16:02;;;;;;;;;;;;;;;18.64;100.00;95412.72;10354243;28;1956;-72
2022/08/19 18:21:06;;;;;;;;;;;;;;;18.62;100.00;95423.13;10350793;28;1979;-70
2022/08/19 18:26:09;;;;;;;;;;;;;;;18.63;100.00;95419.28;10351026;28;1878;-72
2022/08/19 18:31:13;;;;;;;;;;;;;;;18.62;100.00;95425.84;10353903;28;1897;-72
2022/08/19 18:36:17;;;;;;;;;;;;;;;18.59;100.00;95416.44;10354050;28;1907;-75
2022/08/19 18:52:25;;;;;;;;;;;;;;;18.35;100.00;95444.31;10348469;28;1876;-69
2022/08/19 18:57:28;;;;;;;;;;;;;;;18.47;100.00;95445.50;10347011;28;1905;-70
2022/08/19 19:02:32;;;;;;;;;;;;;;;18.28;100.00;95451.41;10349151;28;1975;-70
2022/08/19 19:07:35;;;;;;;;;;;;;;;18.10;100.00;95445.28;10350699;28;2063;-71
2022/08/19 19:12:38;;;;;;;;;;;;;;;18.09;100.00;95446.41;10352906;28;2053;-71
2022/08/19 19:17:43;;;;;;;;;;;;;;;17.93;100.00;95456.25;10354771;28;1956;-70
2022/08/19 19:22:47;;;;;;;;;;;;;;;17.94;100.00;95460.53;10347513;28;2263;-71
2022/08/19 19:27:50;;;;;;;;;;;;;;;17.89;100.00;95452.59;10346211;28;2065;-71
2022/08/19 19:32:55;;;;;;;;;;;;;;;17.87;100.00;95462.97;10350504;28;2168;-71
2022/08/19 19:37:58;;;;;;;;;;;;;;;17.80;100.00;95472.44;10349919;28;1891;-70
2022/08/19 19:43:03;;;;;;;;;;;;;;;17.79;100.00;95476.28;10346241;28;1941;-71
2022/08/19 19:48:07;;;;;;;;;;;;;;;17.60;100.00;95475.84;10344609;28;2073;-71
2022/08/19 19:53:13;;;;;;;;;;;;;;;17.62;100.00;95481.75;10344616;28;2196;-71
2022/08/19 19:58:17;;;;;;;;;;;;;;;17.66;100.00;95471.03;10349304;28;1994;-70
2022/08/19 20:03:31;;;;;;;;;;;;;;;17.45;100.00;95493.50;10347191;28;1906;-71
2022/08/19 20:13:59;;;;;;;;;;;;;;;17.22;100.00;95514.63;10348240;28;1911;-71
2022/08/19 20:19:03;;;;;;;;;;;;;;;17.36;100.00;95514.44;10349792;28;1763;-73
2022/08/19 20:24:06;;;;;;;;;;;;;;;17.35;100.00;95531.88;10348731;28;1991;-74
2022/08/19 20:29:12;;;;;;;;;;;;;;;17.29;100.00;95531.22;10350466;28;1894;-75
2022/08/19 20:34:35;;;;;;;;;;;;;;;17.35;100.00;95528.34;10350034;28;2078;-71
2022/08/19 20:39:39;;;;;;;;;;;;;;;17.32;100.00;95529.81;10350822;28;1914;-73
2022/08/19 20:44:42;;;;;;;;;;;;;;;17.33;100.00;95530.59;10353689;28;2087;-71
2022/08/19 20:49:46;;;;;;;;;;;;;;;17.29;100.00;95531.22;10357473;28;2095;-69
2022/08/19 20:54:49;;;;;;;;;;;;;;;17.29;100.00;95536.66;10353468;28;2151;-71
2022/08/19 20:59:57;;;;;;;;;;;;;;;17.44;100.00;95531.88;10360814;28;2012;-72
2022/08/19 21:05:00;;;;;;;;;;;;;;;17.43;100.00;95541.13;10361993;28;2067;-70
2022/08/19 21:10:04;;;;;;;;;;;;;;;17.26;100.00;95540.03;10356973;28;2028;-77
2022/08/19 21:15:10;;;;;;;;;;;;;;;17.08;100.00;95543.88;10357999;28;2034;-77
2022/08/19 21:20:14;;;;;;;;;;;;;;;17.11;100.00;95545.94;10359266;28;2061;-73
2022/08/19 21:25:17;;;;;;;;;;;;;;;17.13;100.00;95546.44;10353642;28;2076;-70
2022/08/19 21:30:21;;;;;;;;;;;;;;;17.10;100.00;95540.84;10349949;28;2205;-71
2022/08/19 21:35:25;;;;;;;;;;;;;;;17.04;100.00;95551.06;10352859;28;2117;-71
2022/08/19 21:40:28;;;;;;;;;;;;;;;17.03;100.00;95546.75;10354689;28;2075;-71
2022/08/19 21:45:31;;;;;;;;;;;;;;;17.08;100.00;95546.59;10356151;28;2091;-71
2022/08/19 21:50:35;;;;;;;;;;;;;;;17.10;100.00;95552.50;10351015;28;2041;-71
2022/08/19 21:55:38;;;;;;;;;;;;;;;17.12;100.00;95554.91;10355532;28;2018;-71
2022/08/19 22:00:41;;;;;;;;;;;;;;;17.18;100.00;95557.16;10354119;28;2034;-72
2022/08/19 22:05:45;;;;;;;;;;;;;;;17.19;100.00;95550.59;10358759;28;2071;-73
2022/08/19 22:10:48;;;;;;;;;;;;;;;17.23;100.00;95548.81;10355434;28;2083;-71
2022/08/19 22:15:53;;;;;;;;;;;;;;;17.33;100.00;95549.63;10355182;28;1934;-71
2022/08/19 22:20:57;;;;;;;;;;;;;;;17.36;100.00;95541.63;10348888;28;2028;-72
2022/08/19 22:26:00;;;;;;;;;;;;;;;17.31;100.00;95530.13;10361306;28;2211;-71
2022/08/19 22:31:04;;;;;;;;;;;;;;;17.23;100.00;95521.66;10361323;28;2080;-71
2022/08/19 22:36:08;;;;;;;;;;;;;;;17.26;100.00;95534.59;10358907;28;2093;-70
2022/08/19 22:41:11;;;;;;;;;;;;;;;17.27;100.00;95527.25;10356608;28;2052;-70
2022/08/19 22:46:14;;;;;;;;;;;;;;;17.27;100.00;95527.25;10351282;28;2152;-72
2022/08/19 22:56:42;;;;;;;;;;;;;;;17.21;100.00;95528.53;10349691;28;2040;-71
2022/08/19 23:01:46;;;;;;;;;;;;;;;17.32;100.00;95526.31;10349313;28;2060;-71
2022/08/19 23:06:51;;;;;;;;;;;;;;;17.30;100.00;95532.03;10354795;28;2068;-70
2022/08/19 23:11:55;;;;;;;;;;;;;;;17.25;100.00;95530.31;10348619;28;2006;-70
2022/08/19 23:16:58;;;;;;;;;;;;;;;17.21;100.00;95534.78;10356588;28;2160;-70
2022/08/19 23:22:02;;;;;;;;;;;;;;;17.17;100.00;95539.22;10348827;28;2077;-69
2022/08/19 23:32:27;;;;;;;;;;;;;;;17.18;100.00;95524.56;10349202;28;1991;-71
2022/08/19 23:37:30;;;;;;;;;;;;;;;17.19;100.00;95531.59;10351320;28;2125;-75
2022/08/19 23:42:33;;;;;;;;;;;;;;;17.24;100.00;95525.16;10358919;28;2029;-73
2022/08/19 23:47:37;;;;;;;;;;;;;;;17.23;100.00;95513.50;10356297;28;2076;-70
2022/08/19 23:52:43;;;;;;;;;;;;;;;17.24;100.00;95512.41;10352100;28;2008;-71
2022/08/19 23:57:46;;;;;;;;;;;;;;;17.15;100.00;95514.31;10347755;28;2125;-76
